sensor_id;sensor_type;location;lat;lon;timestamp;pressure;altitude;pressure_sealevel;temperature;humidity
21555;BME280;10938;44.794;-0.676;2023-01-28T00:01:09;101907.06;;;7.69;100.00
21555;BME280;10938;44.794;-0.676;2023-01-28T00:03:34;101914.56;;;7.83;100.00
21555;BME280;10938;44.794;-0.676;2023-01-28T00:06:07;101910.41;;;7.67;100.00
21555;BME280;10938;44.794;-0.676;2023-01-28T00:08:33;101904.38;;;7.87;100.00
21555;BME280;10938;44.794;-0.676;2023-01-28T00:11:03;101906.28;;;7.72;100.00
21555;BME280;10938;44.794;-0.676;2023-01-28T00:13:30;101897.91;;;7.98;100.00
21555;BME280;10938;44.794;-0.676;2023-01-28T00:16:04;101900.75;;;8.04;100.00
21555;BME280;10938;44.794;-0.676;2023-01-28T00:18:31;101897.69;;;7.73;100.00
21555;BME280;10938;44.794;-0.676;2023-01-28T00:21:06;101894.75;;;7.65;100.00
21555;BME280;10938;44.794;-0.676;2023-01-28T00:23:34;101897.97;;;7.79;100.00
21555;BME280;10938;44.794;-0.676;2023-01-28T00:26:01;101894.97;;;7.70;100.00
21555;BME280;10938;44.794;-0.676;2023-01-28T00:28:27;101896.28;;;7.60;100.00
21555;BME280;10938;44.794;-0.676;2023-01-28T00:30:53;101900.34;;;7.74;100.00
21555;BME280;10938;44.794;-0.676;2023-01-28T00:33:18;101900.25;;;7.33;100.00
21555;BME280;10938;44.794;-0.676;2023-01-28T00:35:44;101901.91;;;7.50;100.00
21555;BME280;10938;44.794;-0.676;2023-01-28T00:38:09;101899.41;;;7.72;100.00
21555;BME280;10938;44.794;-0.676;2023-01-28T00:40:35;101895.13;;;8.14;100.00
21555;BME280;10938;44.794;-0.676;2023-01-28T00:43:00;101895.25;;;7.97;100.00
21555;BME280;10938;44.794;-0.676;2023-01-28T00:45:26;101891.09;;;7.81;100.00
21555;BME280;10938;44.794;-0.676;2023-01-28T00:47:51;101889.03;;;8.33;100.00
21555;BME280;10938;44.794;-0.676;2023-01-28T00:50:16;101889.50;;;8.45;100.00
21555;BME280;10938;44.794;-0.676;2023-01-28T00:52:44;101887.72;;;8.23;100.00
21555;BME280;10938;44.794;-0.676;2023-01-28T00:55:10;101890.78;;;8.13;100.00
21555;BME280;10938;44.794;-0.676;2023-01-28T00:57:35;101892.91;;;8.65;100.00
21555;BME280;10938;44.794;-0.676;2023-01-28T01:00:00;101888.13;;;8.33;100.00
21555;BME280;10938;44.794;-0.676;2023-01-28T01:02:26;101885.72;;;8.37;100.00
21555;BME280;10938;44.794;-0.676;2023-01-28T01:04:51;101885.84;;;8.40;100.00
21555;BME280;10938;44.794;-0.676;2023-01-28T01:07:23;101885.34;;;8.71;100.00
21555;BME280;10938;44.794;-0.676;2023-01-28T01:10:12;101890.88;;;8.58;100.00
21555;BME280;10938;44.794;-0.676;2023-01-28T01:12:39;101889.81;;;8.31;100.00
21555;BME280;10938;44.794;-0.676;2023-01-28T01:15:06;101894.31;;;8.15;100.00
21555;BME280;10938;44.794;-0.676;2023-01-28T01:17:39;101890.94;;;7.76;100.00
21555;BME280;10938;44.794;-0.676;2023-01-28T01:20:09;101885.69;;;7.96;100.00
21555;BME280;10938;44.794;-0.676;2023-01-28T01:22:36;101893.59;;;7.99;100.00
21555;BME280;10938;44.794;-0.676;2023-01-28T01:25:03;101894.03;;;8.28;100.00
21555;BME280;10938;44.794;-0.676;2023-01-28T01:27:29;101896.09;;;7.96;100.00
21555;BME280;10938;44.794;-0.676;2023-01-28T01:29:54;101892.25;;;7.88;100.00
21555;BME280;10938;44.794;-0.676;2023-01-28T01:32:20;101889.63;;;7.86;100.00
21555;BME280;10938;44.794;-0.676;2023-01-28T01:34:46;101892.03;;;8.02;100.00
21555;BME280;10938;44.794;-0.676;2023-01-28T01:37:12;101891.84;;;8.18;100.00
21555;BME280;10938;44.794;-0.676;2023-01-28T01:39:40;101885.25;;;8.26;100.00
21555;BME280;10938;44.794;-0.676;2023-01-28T01:42:10;101887.59;;;8.00;100.00
21555;BME280;10938;44.794;-0.676;2023-01-28T01:44:52;101885.00;;;8.00;100.00
21555;BME280;10938;44.794;-0.676;2023-01-28T01:52:55;101877.56;;;7.88;100.00
21555;BME280;10938;44.794;-0.676;2023-01-28T01:55:24;101887.81;;;7.85;100.00
21555;BME280;10938;44.794;-0.676;2023-01-28T01:57:54;101896.28;;;7.22;100.00
21555;BME280;10938;44.794;-0.676;2023-01-28T02:00:20;101890.97;;;7.19;100.00
21555;BME280;10938;44.794;-0.676;2023-01-28T02:02:47;101888.81;;;7.68;100.00
21555;BME280;10938;44.794;-0.676;2023-01-28T02:05:17;101890.94;;;7.57;100.00
21555;BME280;10938;44.794;-0.676;2023-01-28T02:07:43;101888.97;;;7.33;100.00
21555;BME280;10938;44.794;-0.676;2023-01-28T02:10:10;101881.66;;;8.02;100.00
21555;BME280;10938;44.794;-0.676;2023-01-28T02:12:40;101881.06;;;8.09;100.00
21555;BME280;10938;44.794;-0.676;2023-01-28T02:15:11;101877.50;;;8.07;100.00
21555;BME280;10938;44.794;-0.676;2023-01-28T02:17:39;101875.94;;;7.90;100.00
21555;BME280;10938;44.794;-0.676;2023-01-28T02:20:07;101873.97;;;7.85;100.00
21555;BME280;10938;44.794;-0.676;2023-01-28T02:31:26;101872.34;;;7.47;100.00
21555;BME280;10938;44.794;-0.676;2023-01-28T02:34:08;101884.78;;;7.74;100.00
21555;BME280;10938;44.794;-0.676;2023-01-28T02:36:41;101869.75;;;7.87;100.00
21555;BME280;10938;44.794;-0.676;2023-01-28T02:39:15;101886.75;;;7.80;100.00
21555;BME280;10938;44.794;-0.676;2023-01-28T02:41:58;101884.75;;;7.15;100.00
21555;BME280;10938;44.794;-0.676;2023-01-28T02:44:25;101885.88;;;7.80;100.00
21555;BME280;10938;44.794;-0.676;2023-01-28T02:46:51;101882.47;;;7.61;100.00
21555;BME280;10938;44.794;-0.676;2023-01-28T02:49:50;101882.41;;;7.60;100.00
21555;BME280;10938;44.794;-0.676;2023-01-28T02:58:40;101884.13;;;7.99;100.00
21555;BME280;10938;44.794;-0.676;2023-01-28T03:03:49;101878.97;;;7.61;100.00
21555;BME280;10938;44.794;-0.676;2023-01-28T03:06:22;101880.59;;;7.78;100.00
21555;BME280;10938;44.794;-0.676;2023-01-28T03:08:58;101882.38;;;7.79;100.00
21555;BME280;10938;44.794;-0.676;2023-01-28T03:11:51;101879.81;;;8.00;100.00
21555;BME280;10938;44.794;-0.676;2023-01-28T03:14:37;101880.00;;;7.64;100.00
21555;BME280;10938;44.794;-0.676;2023-01-28T03:17:27;101889.66;;;7.29;100.00
21555;BME280;10938;44.794;-0.676;2023-01-28T03:20:13;101891.22;;;7.63;100.00
21555;BME280;10938;44.794;-0.676;2023-01-28T03:23:05;101893.16;;;7.88;100.00
21555;BME280;10938;44.794;-0.676;2023-01-28T03:25:53;101882.72;;;7.47;100.00
21555;BME280;10938;44.794;-0.676;2023-01-28T03:28:41;101883.22;;;7.59;100.00
21555;BME280;10938;44.794;-0.676;2023-01-28T03:31:26;101879.19;;;7.65;100.00
21555;BME280;10938;44.794;-0.676;2023-01-28T03:34:11;101890.38;;;7.84;100.00
21555;BME280;10938;44.794;-0.676;2023-01-28T03:36:56;101887.16;;;8.10;100.00
21555;BME280;10938;44.794;-0.676;2023-01-28T03:39:26;101885.13;;;8.03;100.00
21555;BME280;10938;44.794;-0.676;2023-01-28T03:42:00;101885.19;;;7.84;100.00
21555;BME280;10938;44.794;-0.676;2023-01-28T03:44:26;101890.00;;;7.95;100.00
21555;BME280;10938;44.794;-0.676;2023-01-28T03:47:11;101892.22;;;7.86;100.00
21555;BME280;10938;44.794;-0.676;2023-01-28T03:49:39;101896.47;;;8.05;100.00
21555;BME280;10938;44.794;-0.676;2023-01-28T03:52:04;101898.22;;;7.85;100.00
21555;BME280;10938;44.794;-0.676;2023-01-28T03:54:29;101885.56;;;7.93;100.00
21555;BME280;10938;44.794;-0.676;2023-01-28T03:56:55;101896.28;;;8.42;100.00
21555;BME280;10938;44.794;-0.676;2023-01-28T03:59:20;101890.22;;;7.60;100.00
21555;BME280;10938;44.794;-0.676;2023-01-28T04:01:45;101899.50;;;7.36;100.00
21555;BME280;10938;44.794;-0.676;2023-01-28T04:04:11;101896.63;;;7.89;100.00
21555;BME280;10938;44.794;-0.676;2023-01-28T04:06:51;101900.69;;;7.82;100.00
21555;BME280;10938;44.794;-0.676;2023-01-28T04:09:17;101903.56;;;7.69;100.00
21555;BME280;10938;44.794;-0.676;2023-01-28T04:11:42;101904.00;;;7.59;100.00
21555;BME280;10938;44.794;-0.676;2023-01-28T04:14:08;101913.41;;;7.38;100.00
21555;BME280;10938;44.794;-0.676;2023-01-28T04:16:33;101912.13;;;7.66;100.00
21555;BME280;10938;44.794;-0.676;2023-01-28T04:18:59;101921.09;;;7.54;100.00
21555;BME280;10938;44.794;-0.676;2023-01-28T04:21:24;101917.09;;;7.43;100.00
21555;BME280;10938;44.794;-0.676;2023-01-28T04:23:50;101917.44;;;7.31;100.00
21555;BME280;10938;44.794;-0.676;2023-01-28T04:26:16;101912.28;;;7.50;100.00
21555;BME280;10938;44.794;-0.676;2023-01-28T04:28:41;101911.16;;;7.26;100.00
21555;BME280;10938;44.794;-0.676;2023-01-28T04:31:07;101908.56;;;7.64;100.00
21555;BME280;10938;44.794;-0.676;2023-01-28T04:33:32;101905.63;;;7.76;100.00
21555;BME280;10938;44.794;-0.676;2023-01-28T04:35:58;101916.41;;;7.66;100.00
21555;BME280;10938;44.794;-0.676;2023-01-28T04:38:23;101912.31;;;7.52;100.00
21555;BME280;10938;44.794;-0.676;2023-01-28T04:40:50;101915.25;;;7.59;100.00
21555;BME280;10938;44.794;-0.676;2023-01-28T04:43:16;101912.78;;;7.82;100.00
21555;BME280;10938;44.794;-0.676;2023-01-28T04:45:42;101915.06;;;7.95;100.00
21555;BME280;10938;44.794;-0.676;2023-01-28T04:48:07;101903.97;;;8.39;100.00
21555;BME280;10938;44.794;-0.676;2023-01-28T04:50:33;101910.97;;;7.60;100.00
21555;BME280;10938;44.794;-0.676;2023-01-28T04:52:58;101913.66;;;7.82;100.00
21555;BME280;10938;44.794;-0.676;2023-01-28T04:55:23;101916.69;;;7.53;100.00
21555;BME280;10938;44.794;-0.676;2023-01-28T04:57:49;101914.97;;;7.72;100.00
21555;BME280;10938;44.794;-0.676;2023-01-28T05:00:15;101914.22;;;7.75;100.00
21555;BME280;10938;44.794;-0.676;2023-01-28T05:02:40;101918.00;;;7.43;100.00
21555;BME280;10938;44.794;-0.676;2023-01-28T05:05:06;101919.34;;;7.35;100.00
21555;BME280;10938;44.794;-0.676;2023-01-28T05:07:34;101927.66;;;7.47;100.00
21555;BME280;10938;44.794;-0.676;2023-01-28T05:09:59;101928.16;;;7.19;100.00
21555;BME280;10938;44.794;-0.676;2023-01-28T05:12:25;101925.06;;;7.28;100.00
21555;BME280;10938;44.794;-0.676;2023-01-28T05:14:50;101918.34;;;7.70;100.00
21555;BME280;10938;44.794;-0.676;2023-01-28T05:17:15;101926.56;;;7.81;100.00
21555;BME280;10938;44.794;-0.676;2023-01-28T05:19:41;101930.59;;;7.74;100.00
21555;BME280;10938;44.794;-0.676;2023-01-28T05:22:06;101927.47;;;7.62;100.00
21555;BME280;10938;44.794;-0.676;2023-01-28T05:24:32;101930.28;;;8.06;100.00
21555;BME280;10938;44.794;-0.676;2023-01-28T05:26:57;101924.66;;;8.16;100.00
21555;BME280;10938;44.794;-0.676;2023-01-28T05:29:22;101931.19;;;8.27;100.00
21555;BME280;10938;44.794;-0.676;2023-01-28T05:31:48;101930.09;;;8.22;100.00
21555;BME280;10938;44.794;-0.676;2023-01-28T05:34:14;101946.31;;;7.39;100.00
21555;BME280;10938;44.794;-0.676;2023-01-28T05:36:39;101939.69;;;7.84;100.00
21555;BME280;10938;44.794;-0.676;2023-01-28T05:39:07;101941.47;;;7.85;100.00
21555;BME280;10938;44.794;-0.676;2023-01-28T05:41:33;101952.31;;;7.95;100.00
21555;BME280;10938;44.794;-0.676;2023-01-28T05:43:59;101943.63;;;8.35;100.00
21555;BME280;10938;44.794;-0.676;2023-01-28T05:46:24;101952.63;;;7.63;100.00
21555;BME280;10938;44.794;-0.676;2023-01-28T05:48:50;101945.09;;;7.50;100.00
21555;BME280;10938;44.794;-0.676;2023-01-28T05:51:16;101941.84;;;7.54;100.00
21555;BME280;10938;44.794;-0.676;2023-01-28T05:53:41;101964.72;;;7.06;100.00
21555;BME280;10938;44.794;-0.676;2023-01-28T05:56:06;101952.44;;;7.21;100.00
21555;BME280;10938;44.794;-0.676;2023-01-28T05:58:32;101954.09;;;7.58;100.00
21555;BME280;10938;44.794;-0.676;2023-01-28T06:00:58;101954.81;;;7.54;100.00
21555;BME280;10938;44.794;-0.676;2023-01-28T06:03:23;101962.03;;;7.61;100.00
21555;BME280;10938;44.794;-0.676;2023-01-28T06:05:48;101964.22;;;7.52;100.00
21555;BME280;10938;44.794;-0.676;2023-01-28T06:08:14;101966.66;;;7.68;100.00
21555;BME280;10938;44.794;-0.676;2023-01-28T06:10:39;101973.78;;;7.34;100.00
21555;BME280;10938;44.794;-0.676;2023-01-28T06:13:05;101961.47;;;7.68;100.00
21555;BME280;10938;44.794;-0.676;2023-01-28T06:15:31;101968.38;;;7.48;100.00
21555;BME280;10938;44.794;-0.676;2023-01-28T06:17:56;101979.09;;;7.56;100.00
21555;BME280;10938;44.794;-0.676;2023-01-28T06:20:22;101973.25;;;7.60;100.00
21555;BME280;10938;44.794;-0.676;2023-01-28T06:22:49;101974.81;;;7.37;100.00
21555;BME280;10938;44.794;-0.676;2023-01-28T06:25:15;101971.19;;;7.53;100.00
21555;BME280;10938;44.794;-0.676;2023-01-28T06:27:43;101979.50;;;7.46;100.00
21555;BME280;10938;44.794;-0.676;2023-01-28T06:30:09;101986.88;;;7.75;100.00
21555;BME280;10938;44.794;-0.676;2023-01-28T06:32:35;101978.00;;;7.89;100.00
21555;BME280;10938;44.794;-0.676;2023-01-28T06:35:01;101982.34;;;8.28;100.00
21555;BME280;10938;44.794;-0.676;2023-01-28T06:37:26;101981.78;;;8.36;100.00
21555;BME280;10938;44.794;-0.676;2023-01-28T06:39:51;101986.69;;;7.90;100.00
21555;BME280;10938;44.794;-0.676;2023-01-28T06:42:17;101985.38;;;7.61;100.00
21555;BME280;10938;44.794;-0.676;2023-01-28T06:44:42;101981.25;;;8.23;100.00
21555;BME280;10938;44.794;-0.676;2023-01-28T06:47:08;101990.06;;;7.87;100.00
21555;BME280;10938;44.794;-0.676;2023-01-28T06:49:36;102000.34;;;7.10;100.00
21555;BME280;10938;44.794;-0.676;2023-01-28T06:52:01;101989.75;;;7.81;100.00
21555;BME280;10938;44.794;-0.676;2023-01-28T06:54:31;101992.03;;;7.73;100.00
21555;BME280;10938;44.794;-0.676;2023-01-28T06:56:56;102004.78;;;7.13;100.00
21555;BME280;10938;44.794;-0.676;2023-01-28T06:59:21;102005.19;;;7.40;100.00
21555;BME280;10938;44.794;-0.676;2023-01-28T07:01:47;102007.75;;;7.03;100.00
21555;BME280;10938;44.794;-0.676;2023-01-28T07:04:12;102013.72;;;7.19;100.00
21555;BME280;10938;44.794;-0.676;2023-01-28T07:06:38;102019.81;;;7.57;100.00
21555;BME280;10938;44.794;-0.676;2023-01-28T07:09:03;102017.63;;;7.47;100.00
21555;BME280;10938;44.794;-0.676;2023-01-28T07:11:29;102018.59;;;7.31;100.00
21555;BME280;10938;44.794;-0.676;2023-01-28T07:13:54;102011.97;;;7.94;100.00
21555;BME280;10938;44.794;-0.676;2023-01-28T07:16:19;102014.75;;;7.60;100.00
21555;BME280;10938;44.794;-0.676;2023-01-28T07:18:45;102014.06;;;7.64;100.00
21555;BME280;10938;44.794;-0.676;2023-01-28T07:21:10;102020.75;;;7.59;100.00
21555;BME280;10938;44.794;-0.676;2023-01-28T07:23:36;102015.03;;;7.66;100.00
21555;BME280;10938;44.794;-0.676;2023-01-28T07:26:04;102033.22;;;7.11;100.00
21555;BME280;10938;44.794;-0.676;2023-01-28T07:28:30;102018.53;;;7.30;100.00
21555;BME280;10938;44.794;-0.676;2023-01-28T07:30:55;102029.84;;;7.32;100.00
21555;BME280;10938;44.794;-0.676;2023-01-28T07:33:21;102029.53;;;7.06;100.00
21555;BME280;10938;44.794;-0.676;2023-01-28T07:35:47;102018.94;;;7.39;100.00
21555;BME280;10938;44.794;-0.676;2023-01-28T07:38:13;102026.75;;;7.58;100.00
21555;BME280;10938;44.794;-0.676;2023-01-28T07:40:39;102026.59;;;7.72;100.00
21555;BME280;10938;44.794;-0.676;2023-01-28T07:43:07;102035.94;;;7.88;100.00
21555;BME280;10938;44.794;-0.676;2023-01-28T07:45:32;102041.34;;;7.37;100.00
21555;BME280;10938;44.794;-0.676;2023-01-28T07:48:00;102041.81;;;7.65;100.00
21555;BME280;10938;44.794;-0.676;2023-01-28T07:50:27;102040.72;;;7.98;100.00
21555;BME280;10938;44.794;-0.676;2023-01-28T07:52:56;102047.38;;;7.55;100.00
21555;BME280;10938;44.794;-0.676;2023-01-28T07:55:22;102045.31;;;7.48;100.00
21555;BME280;10938;44.794;-0.676;2023-01-28T07:57:56;102049.03;;;7.35;100.00
21555;BME280;10938;44.794;-0.676;2023-01-28T08:00:24;102062.66;;;7.49;100.00
21555;BME280;10938;44.794;-0.676;2023-01-28T08:02:53;102063.63;;;7.51;100.00
21555;BME280;10938;44.794;-0.676;2023-01-28T08:05:20;102054.34;;;7.56;100.00
21555;BME280;10938;44.794;-0.676;2023-01-28T08:07:48;102055.34;;;7.96;100.00
21555;BME280;10938;44.794;-0.676;2023-01-28T08:10:17;102055.28;;;7.75;100.00
21555;BME280;10938;44.794;-0.676;2023-01-28T08:12:51;102061.88;;;7.69;100.00
21555;BME280;10938;44.794;-0.676;2023-01-28T08:15:16;102066.19;;;7.68;100.00
21555;BME280;10938;44.794;-0.676;2023-01-28T08:17:42;102065.13;;;7.46;100.00
21555;BME280;10938;44.794;-0.676;2023-01-28T08:20:08;102067.34;;;7.38;100.00
21555;BME280;10938;44.794;-0.676;2023-01-28T08:22:34;102075.13;;;7.38;100.00
21555;BME280;10938;44.794;-0.676;2023-01-28T08:24:59;102062.31;;;7.41;100.00
21555;BME280;10938;44.794;-0.676;2023-01-28T08:27:24;102069.16;;;7.58;100.00
21555;BME280;10938;44.794;-0.676;2023-01-28T08:33:17;102082.72;;;7.34;100.00
21555;BME280;10938;44.794;-0.676;2023-01-28T08:35:43;102085.50;;;7.20;100.00
21555;BME280;10938;44.794;-0.676;2023-01-28T08:38:10;102078.94;;;7.64;100.00
21555;BME280;10938;44.794;-0.676;2023-01-28T08:40:36;102088.25;;;7.78;100.00
21555;BME280;10938;44.794;-0.676;2023-01-28T08:43:02;102089.00;;;7.56;100.00
21555;BME280;10938;44.794;-0.676;2023-01-28T08:45:28;102089.03;;;7.95;100.00
21555;BME280;10938;44.794;-0.676;2023-01-28T08:50:24;102097.09;;;8.01;100.00
21555;BME280;10938;44.794;-0.676;2023-01-28T08:52:55;102092.19;;;8.07;100.00
21555;BME280;10938;44.794;-0.676;2023-01-28T08:55:21;102090.31;;;7.85;100.00
21555;BME280;10938;44.794;-0.676;2023-01-28T08:57:46;102108.22;;;7.98;100.00
21555;BME280;10938;44.794;-0.676;2023-01-28T09:00:12;102102.44;;;8.04;100.00
21555;BME280;10938;44.794;-0.676;2023-01-28T09:02:38;102114.19;;;7.96;100.00
21555;BME280;10938;44.794;-0.676;2023-01-28T09:05:04;102109.13;;;8.18;100.00
21555;BME280;10938;44.794;-0.676;2023-01-28T09:07:30;102121.34;;;7.82;100.00
21555;BME280;10938;44.794;-0.676;2023-01-28T09:09:56;102122.47;;;8.06;100.00
21555;BME280;10938;44.794;-0.676;2023-01-28T09:12:22;102114.47;;;8.02;100.00
21555;BME280;10938;44.794;-0.676;2023-01-28T09:14:47;102125.84;;;8.23;100.00
21555;BME280;10938;44.794;-0.676;2023-01-28T09:17:12;102134.66;;;8.26;100.00
21555;BME280;10938;44.794;-0.676;2023-01-28T09:19:38;102140.31;;;7.81;100.00
21555;BME280;10938;44.794;-0.676;2023-01-28T09:22:04;102138.91;;;7.88;100.00
21555;BME280;10938;44.794;-0.676;2023-01-28T09:24:29;102135.72;;;8.30;100.00
21555;BME280;10938;44.794;-0.676;2023-01-28T09:26:55;102141.41;;;8.04;100.00
21555;BME280;10938;44.794;-0.676;2023-01-28T09:29:20;102144.09;;;7.88;100.00
21555;BME280;10938;44.794;-0.676;2023-01-28T09:31:46;102136.72;;;8.53;100.00
21555;BME280;10938;44.794;-0.676;2023-01-28T09:34:11;102144.66;;;8.37;100.00
21555;BME280;10938;44.794;-0.676;2023-01-28T09:36:38;102144.69;;;8.00;100.00
21555;BME280;10938;44.794;-0.676;2023-01-28T09:39:04;102147.81;;;8.30;100.00
21555;BME280;10938;44.794;-0.676;2023-01-28T09:44:32;102144.56;;;8.16;100.00
21555;BME280;10938;44.794;-0.676;2023-01-28T09:47:06;102143.69;;;8.35;100.00
21555;BME280;10938;44.794;-0.676;2023-01-28T09:49:37;102150.38;;;8.68;100.00
21555;BME280;10938;44.794;-0.676;2023-01-28T09:52:04;102153.09;;;8.50;100.00
21555;BME280;10938;44.794;-0.676;2023-01-28T09:54:50;102160.59;;;8.07;100.00
21555;BME280;10938;44.794;-0.676;2023-01-28T09:57:20;102154.84;;;8.14;100.00
21555;BME280;10938;44.794;-0.676;2023-01-28T09:59:47;102156.50;;;7.93;100.00
21555;BME280;10938;44.794;-0.676;2023-01-28T10:02:29;102160.66;;;7.72;100.00
21555;BME280;10938;44.794;-0.676;2023-01-28T10:07:58;102159.00;;;7.74;100.00
21555;BME280;10938;44.794;-0.676;2023-01-28T10:10:40;102165.03;;;6.86;100.00
21555;BME280;10938;44.794;-0.676;2023-01-28T10:13:15;102158.50;;;7.28;100.00
21555;BME280;10938;44.794;-0.676;2023-01-28T10:18:11;102162.16;;;7.67;100.00
21555;BME280;10938;44.794;-0.676;2023-01-28T10:20:48;102154.44;;;8.42;100.00
21555;BME280;10938;44.794;-0.676;2023-01-28T10:23:31;102155.41;;;8.63;100.00
21555;BME280;10938;44.794;-0.676;2023-01-28T10:26:04;102147.59;;;8.44;100.00
21555;BME280;10938;44.794;-0.676;2023-01-28T10:28:46;102150.63;;;8.74;100.00
21555;BME280;10938;44.794;-0.676;2023-01-28T10:31:14;102139.19;;;8.50;100.00
21555;BME280;10938;44.794;-0.676;2023-01-28T10:33:39;102135.97;;;8.55;100.00
21555;BME280;10938;44.794;-0.676;2023-01-28T10:36:05;102127.16;;;9.12;100.00
21555;BME280;10938;44.794;-0.676;2023-01-28T10:38:31;102120.94;;;10.66;100.00
21555;BME280;10938;44.794;-0.676;2023-01-28T10:41:01;102122.13;;;10.50;100.00
21555;BME280;10938;44.794;-0.676;2023-01-28T10:43:31;102126.44;;;11.24;100.00
21555;BME280;10938;44.794;-0.676;2023-01-28T10:46:04;102121.66;;;11.66;99.46
21555;BME280;10938;44.794;-0.676;2023-01-28T10:48:33;102124.50;;;10.93;100.00
21555;BME280;10938;44.794;-0.676;2023-01-28T10:51:03;102119.91;;;10.86;99.90
21555;BME280;10938;44.794;-0.676;2023-01-28T10:55:59;102116.34;;;10.59;99.46
21555;BME280;10938;44.794;-0.676;2023-01-28T10:58:27;102112.22;;;11.16;98.86
21555;BME280;10938;44.794;-0.676;2023-01-28T11:00:56;102118.06;;;11.09;98.11
21555;BME280;10938;44.794;-0.676;2023-01-28T11:03:24;102121.06;;;10.45;98.21
21555;BME280;10938;44.794;-0.676;2023-01-28T11:05:52;102121.19;;;10.48;100.00
21555;BME280;10938;44.794;-0.676;2023-01-28T11:08:19;102118.75;;;10.78;99.34
21555;BME280;10938;44.794;-0.676;2023-01-28T11:10:46;102108.34;;;11.03;97.88
21555;BME280;10938;44.794;-0.676;2023-01-28T11:13:25;102115.09;;;10.24;98.82
21555;BME280;10938;44.794;-0.676;2023-01-28T11:15:52;102114.13;;;10.22;99.95
21555;BME280;10938;44.794;-0.676;2023-01-28T11:18:30;102110.28;;;10.12;99.18
21555;BME280;10938;44.794;-0.676;2023-01-28T11:20:58;102107.00;;;10.16;98.79
21555;BME280;10938;44.794;-0.676;2023-01-28T11:23:48;102115.25;;;9.40;100.00
21555;BME280;10938;44.794;-0.676;2023-01-28T11:26:17;102111.66;;;9.58;100.00
21555;BME280;10938;44.794;-0.676;2023-01-28T11:28:44;102098.13;;;9.67;100.00
21555;BME280;10938;44.794;-0.676;2023-01-28T11:31:13;102109.09;;;10.04;100.00
21555;BME280;10938;44.794;-0.676;2023-01-28T11:36:31;102104.63;;;9.56;100.00
21555;BME280;10938;44.794;-0.676;2023-01-28T11:39:00;102094.09;;;10.45;99.03
21555;BME280;10938;44.794;-0.676;2023-01-28T11:41:31;102092.25;;;10.91;96.73
21555;BME280;10938;44.794;-0.676;2023-01-28T11:43:58;102091.69;;;11.26;95.52
21555;BME280;10938;44.794;-0.676;2023-01-28T11:46:51;102090.41;;;11.14;94.43
21555;BME280;10938;44.794;-0.676;2023-01-28T11:49:36;102090.63;;;11.20;94.40
21555;BME280;10938;44.794;-0.676;2023-01-28T11:52:26;102081.88;;;10.18;96.86
21555;BME280;10938;44.794;-0.676;2023-01-28T11:55:26;102080.41;;;10.75;96.46
21555;BME280;10938;44.794;-0.676;2023-01-28T12:03:28;102075.28;;;10.06;96.68
21555;BME280;10938;44.794;-0.676;2023-01-28T12:06:31;102085.84;;;9.42;97.97
21555;BME280;10938;44.794;-0.676;2023-01-28T12:12:07;102077.47;;;10.41;96.24
21555;BME280;10938;44.794;-0.676;2023-01-28T12:17:24;102076.06;;;9.57;95.43
21555;BME280;10938;44.794;-0.676;2023-01-28T12:25:37;102048.97;;;12.09;88.13
21555;BME280;10938;44.794;-0.676;2023-01-28T12:31:24;102070.00;;;10.04;94.69
21555;BME280;10938;44.794;-0.676;2023-01-28T12:34:07;102067.63;;;9.20;96.55
21555;BME280;10938;44.794;-0.676;2023-01-28T12:36:44;102062.13;;;9.12;98.23
21555;BME280;10938;44.794;-0.676;2023-01-28T12:41:58;102062.34;;;9.18;98.69
21555;BME280;10938;44.794;-0.676;2023-01-28T12:44:32;102065.06;;;9.88;97.01
21555;BME280;10938;44.794;-0.676;2023-01-28T12:47:04;102072.88;;;9.01;100.00
21555;BME280;10938;44.794;-0.676;2023-01-28T12:49:43;102069.34;;;9.19;100.00
21555;BME280;10938;44.794;-0.676;2023-01-28T12:52:19;102079.06;;;8.82;100.00
21555;BME280;10938;44.794;-0.676;2023-01-28T12:54:56;102064.22;;;9.00;100.00
21555;BME280;10938;44.794;-0.676;2023-01-28T12:57:27;102063.31;;;9.20;100.00
21555;BME280;10938;44.794;-0.676;2023-01-28T13:05:40;102055.06;;;9.99;100.00
21555;BME280;10938;44.794;-0.676;2023-01-28T13:08:17;102049.53;;;9.67;100.00
21555;BME280;10938;44.794;-0.676;2023-01-28T13:10:45;102047.44;;;10.27;100.00
21555;BME280;10938;44.794;-0.676;2023-01-28T13:13:28;102047.47;;;10.28;100.00
21555;BME280;10938;44.794;-0.676;2023-01-28T13:15:55;102054.81;;;9.47;100.00
21555;BME280;10938;44.794;-0.676;2023-01-28T13:18:47;102048.88;;;10.19;100.00
21555;BME280;10938;44.794;-0.676;2023-01-28T13:24:02;102046.03;;;10.37;100.00
21555;BME280;10938;44.794;-0.676;2023-01-28T13:31:42;102063.03;;;10.03;100.00
21555;BME280;10938;44.794;-0.676;2023-01-28T13:34:32;102054.81;;;9.47;100.00
21555;BME280;10938;44.794;-0.676;2023-01-28T13:40:05;102061.50;;;9.40;100.00
21555;BME280;10938;44.794;-0.676;2023-01-28T13:42:31;102056.94;;;9.57;100.00
21555;BME280;10938;44.794;-0.676;2023-01-28T13:47:46;102074.00;;;9.95;100.00
21555;BME280;10938;44.794;-0.676;2023-01-28T13:50:15;102060.94;;;9.93;100.00
21555;BME280;10938;44.794;-0.676;2023-01-28T13:53:03;102070.31;;;8.80;100.00
21555;BME280;10938;44.794;-0.676;2023-01-28T13:55:37;102062.84;;;8.67;100.00
21555;BME280;10938;44.794;-0.676;2023-01-28T14:17:40;102053.22;;;9.96;100.00
21555;BME280;10938;44.794;-0.676;2023-01-28T14:22:41;102055.63;;;9.90;100.00
21555;BME280;10938;44.794;-0.676;2023-01-28T14:25:12;102068.94;;;10.21;100.00
21555;BME280;10938;44.794;-0.676;2023-01-28T14:27:42;102059.44;;;9.77;100.00
21555;BME280;10938;44.794;-0.676;2023-01-28T14:32:50;102073.25;;;9.97;100.00
21555;BME280;10938;44.794;-0.676;2023-01-28T14:35:29;102067.16;;;9.97;100.00
21555;BME280;10938;44.794;-0.676;2023-01-28T14:37:56;102075.28;;;9.60;100.00
21555;BME280;10938;44.794;-0.676;2023-01-28T14:40:23;102074.56;;;10.10;100.00
21555;BME280;10938;44.794;-0.676;2023-01-28T14:42:51;102074.41;;;10.78;100.00